sensor_id;sensor_type;location;lat;lon;timestamp;pressure;altitude;pressure_sealevel;temperature;humidity
3464;BME280;3551;41.578;24.706;2022-09-09T00:00:31;91607.34;;;15.53;100.00
3464;BME280;3551;41.578;24.706;2022-09-09T00:03:08;91627.81;;;15.50;100.00
3464;BME280;3551;41.578;24.706;2022-09-09T00:05:44;91626.66;;;15.51;100.00
3464;BME280;3551;41.578;24.706;2022-09-09T00:08:19;91616.44;;;15.62;100.00
3464;BME280;3551;41.578;24.706;2022-09-09T00:10:51;91618.38;;;15.62;100.00
3464;BME280;3551;41.578;24.706;2022-09-09T00:13:25;91614.41;;;15.47;100.00
3464;BME280;3551;41.578;24.706;2022-09-09T00:15:59;91613.13;;;15.28;100.00
3464;BME280;3551;41.578;24.706;2022-09-09T00:18:29;91613.59;;;15.50;100.00
3464;BME280;3551;41.578;24.706;2022-09-09T00:21:04;91624.81;;;15.68;100.00
3464;BME280;3551;41.578;24.706;2022-09-09T00:23:34;91616.19;;;15.76;100.00
3464;BME280;3551;41.578;24.706;2022-09-09T00:26:10;91618.59;;;15.71;100.00
3464;BME280;3551;41.578;24.706;2022-09-09T00:28:46;91611.28;;;15.48;100.00
3464;BME280;3551;41.578;24.706;2022-09-09T00:31:23;91616.19;;;15.53;100.00
3464;BME280;3551;41.578;24.706;2022-09-09T00:33:52;91608.50;;;15.29;100.00
3464;BME280;3551;41.578;24.706;2022-09-09T00:36:22;91602.03;;;15.49;100.00
3464;BME280;3551;41.578;24.706;2022-09-09T00:38:55;91601.56;;;15.54;100.00
3464;BME280;3551;41.578;24.706;2022-09-09T00:41:32;91595.75;;;15.56;100.00
3464;BME280;3551;41.578;24.706;2022-09-09T00:44:16;91585.59;;;15.40;100.00
3464;BME280;3551;41.578;24.706;2022-09-09T00:46:56;91600.31;;;15.59;100.00
3464;BME280;3551;41.578;24.706;2022-09-09T00:49:35;91597.00;;;15.51;100.00
3464;BME280;3551;41.578;24.706;2022-09-09T00:52:16;91591.69;;;15.44;100.00
3464;BME280;3551;41.578;24.706;2022-09-09T00:54:52;91587.09;;;15.41;100.00
3464;BME280;3551;41.578;24.706;2022-09-09T00:57:28;91592.38;;;15.52;100.00
3464;BME280;3551;41.578;24.706;2022-09-09T01:00:15;91582.22;;;15.59;100.00
3464;BME280;3551;41.578;24.706;2022-09-09T01:02:49;91579.66;;;15.52;100.00
3464;BME280;3551;41.578;24.706;2022-09-09T01:05:22;91584.28;;;15.52;100.00
3464;BME280;3551;41.578;24.706;2022-09-09T01:07:51;91586.19;;;15.28;100.00
3464;BME280;3551;41.578;24.706;2022-09-09T01:10:25;91579.09;;;15.38;100.00
3464;BME280;3551;41.578;24.706;2022-09-09T01:12:56;91587.09;;;15.41;100.00
3464;BME280;3551;41.578;24.706;2022-09-09T01:15:27;91581.56;;;15.29;100.00
3464;BME280;3551;41.578;24.706;2022-09-09T01:18:00;91583.53;;;15.25;100.00
3464;BME280;3551;41.578;24.706;2022-09-09T01:20:33;91587.94;;;15.38;100.00
3464;BME280;3551;41.578;24.706;2022-09-09T01:23:19;91592.38;;;15.52;100.00
3464;BME280;3551;41.578;24.706;2022-09-09T01:26:13;91591.69;;;15.44;100.00
3464;BME280;3551;41.578;24.706;2022-09-09T01:28:44;91580.91;;;15.21;100.00
3464;BME280;3551;41.578;24.706;2022-09-09T01:31:16;91580.75;;;15.32;100.00
3464;BME280;3551;41.578;24.706;2022-09-09T01:33:44;91579.03;;;15.41;100.00
3464;BME280;3551;41.578;24.706;2022-09-09T01:36:15;91581.84;;;15.34;100.00
3464;BME280;3551;41.578;24.706;2022-09-09T01:38:45;91571.94;;;15.28;100.00
3464;BME280;3551;41.578;24.706;2022-09-09T01:41:13;91575.59;;;15.17;100.00
3464;BME280;3551;41.578;24.706;2022-09-09T01:43:40;91558.28;;;14.92;100.00
3464;BME280;3551;41.578;24.706;2022-09-09T01:46:07;91581.56;;;15.05;100.00
3464;BME280;3551;41.578;24.706;2022-09-09T01:48:34;91577.56;;;15.13;100.00
3464;BME280;3551;41.578;24.706;2022-09-09T01:51:01;91581.81;;;14.88;100.00
3464;BME280;3551;41.578;24.706;2022-09-09T01:53:28;91578.63;;;14.96;100.00
3464;BME280;3551;41.578;24.706;2022-09-09T01:56:04;91578.44;;;15.07;100.00
3464;BME280;3551;41.578;24.706;2022-09-09T01:58:46;91576.13;;;15.09;100.00
3464;BME280;3551;41.578;24.706;2022-09-09T02:01:18;91572.13;;;15.17;100.00
3464;BME280;3551;41.578;24.706;2022-09-09T02:03:52;91579.03;;;15.18;100.00
3464;BME280;3551;41.578;24.706;2022-09-09T02:06:27;91576.84;;;15.09;100.00
3464;BME280;3551;41.578;24.706;2022-09-09T02:08:56;91575.78;;;15.03;100.00
3464;BME280;3551;41.578;24.706;2022-09-09T02:11:26;91574.16;;;15.09;100.00
3464;BME280;3551;41.578;24.706;2022-09-09T02:13:59;91570.28;;;14.87;100.00
3464;BME280;3551;41.578;24.706;2022-09-09T02:16:32;91569.44;;;14.94;100.00
3464;BME280;3551;41.578;24.706;2022-09-09T02:19:03;91582.63;;;14.85;100.00
3464;BME280;3551;41.578;24.706;2022-09-09T02:21:34;91574.84;;;14.90;100.00
3464;BME280;3551;41.578;24.706;2022-09-09T02:24:04;91566.78;;;14.90;100.00
3464;BME280;3551;41.578;24.706;2022-09-09T02:26:34;91577.81;;;14.99;100.00
3464;BME280;3551;41.578;24.706;2022-09-09T02:29:06;91562.56;;;14.89;100.00
3464;BME280;3551;41.578;24.706;2022-09-09T02:31:36;91567.06;;;14.96;100.00
3464;BME280;3551;41.578;24.706;2022-09-09T02:34:05;91562.50;;;14.93;100.00
3464;BME280;3551;41.578;24.706;2022-09-09T02:36:37;91553.06;;;14.81;100.00
3464;BME280;3551;41.578;24.706;2022-09-09T02:39:07;91567.78;;;15.00;100.00
3464;BME280;3551;41.578;24.706;2022-09-09T02:41:37;91550.28;;;14.88;100.00
3464;BME280;3551;41.578;24.706;2022-09-09T02:44:10;91555.88;;;14.97;100.00
3464;BME280;3551;41.578;24.706;2022-09-09T02:46:47;91559.41;;;14.94;100.00
3464;BME280;3551;41.578;24.706;2022-09-09T02:49:24;91566.31;;;14.95;100.00
3464;BME280;3551;41.578;24.706;2022-09-09T02:52:01;91564.56;;;14.85;100.00
3464;BME280;3551;41.578;24.706;2022-09-09T02:54:30;91575.63;;;14.91;100.00
3464;BME280;3551;41.578;24.706;2022-09-09T02:57:02;91560.06;;;15.02;100.00
3464;BME280;3551;41.578;24.706;2022-09-09T02:59:33;91563.97;;;14.97;100.00
3464;BME280;3551;41.578;24.706;2022-09-09T03:02:00;91541.88;;;14.83;100.00
3464;BME280;3551;41.578;24.706;2022-09-09T03:04:27;91561.34;;;14.94;100.00
3464;BME280;3551;41.578;24.706;2022-09-09T03:06:54;91557.59;;;14.88;100.00
3464;BME280;3551;41.578;24.706;2022-09-09T03:09:21;91558.13;;;14.52;100.00
3464;BME280;3551;41.578;24.706;2022-09-09T03:11:48;91551.31;;;14.44;100.00
3464;BME280;3551;41.578;24.706;2022-09-09T03:14:15;91552.16;;;14.38;100.00
3464;BME280;3551;41.578;24.706;2022-09-09T03:16:47;91569.72;;;14.46;100.00
3464;BME280;3551;41.578;24.706;2022-09-09T03:19:14;91558.75;;;14.33;100.00
3464;BME280;3551;41.578;24.706;2022-09-09T03:21:41;91563.31;;;14.06;100.00
3464;BME280;3551;41.578;24.706;2022-09-09T03:24:08;91558.91;;;14.49;100.00
3464;BME280;3551;41.578;24.706;2022-09-09T03:26:35;91549.22;;;14.55;100.00
3464;BME280;3551;41.578;24.706;2022-09-09T03:29:03;91570.03;;;14.21;100.00
3464;BME280;3551;41.578;24.706;2022-09-09T03:31:31;91563.19;;;14.13;100.00
3464;BME280;3551;41.578;24.706;2022-09-09T03:34:00;91573.34;;;14.36;100.00
3464;BME280;3551;41.578;24.706;2022-09-09T03:36:27;91571.00;;;14.38;100.00
3464;BME280;3551;41.578;24.706;2022-09-09T03:38:55;91579.03;;;14.41;100.00
3464;BME280;3551;41.578;24.706;2022-09-09T03:41:22;91551.22;;;14.21;100.00
3464;BME280;3551;41.578;24.706;2022-09-09T03:43:49;91569.38;;;14.44;100.00
3464;BME280;3551;41.578;24.706;2022-09-09T03:46:17;91569.53;;;14.60;100.00
3464;BME280;3551;41.578;24.706;2022-09-09T03:48:43;91570.56;;;14.70;100.00
3464;BME280;3551;41.578;24.706;2022-09-09T03:51:12;91578.47;;;14.80;100.00
3464;BME280;3551;41.578;24.706;2022-09-09T03:53:39;91568.38;;;14.61;100.00
3464;BME280;3551;41.578;24.706;2022-09-09T03:56:06;91577.81;;;14.73;100.00
3464;BME280;3551;41.578;24.706;2022-09-09T03:58:34;91572.09;;;14.71;100.00
3464;BME280;3551;41.578;24.706;2022-09-09T04:01:03;91594.34;;;14.71;100.00
3464;BME280;3551;41.578;24.706;2022-09-09T04:03:31;91577.31;;;14.54;100.00
3464;BME280;3551;41.578;24.706;2022-09-09T04:06:00;91567.06;;;14.42;100.00
3464;BME280;3551;41.578;24.706;2022-09-09T04:08:29;91578.22;;;14.44;100.00
3464;BME280;3551;41.578;24.706;2022-09-09T04:10:56;91584.22;;;14.55;100.00
3464;BME280;3551;41.578;24.706;2022-09-09T04:13:24;91577.91;;;14.39;100.00
3464;BME280;3551;41.578;24.706;2022-09-09T04:15:52;91598.88;;;14.51;100.00
3464;BME280;3551;41.578;24.706;2022-09-09T04:18:20;91580.81;;;14.51;100.00
3464;BME280;3551;41.578;24.706;2022-09-09T04:20:48;91575.69;;;14.60;100.00
3464;BME280;3551;41.578;24.706;2022-09-09T04:23:16;91592.16;;;14.62;100.00
3464;BME280;3551;41.578;24.706;2022-09-09T04:25:48;91578.63;;;14.70;100.00
3464;BME280;3551;41.578;24.706;2022-09-09T04:28:17;91575.34;;;14.85;100.00
3464;BME280;3551;41.578;24.706;2022-09-09T04:30:45;91575.50;;;14.71;100.00
3464;BME280;3551;41.578;24.706;2022-09-09T04:33:12;91571.50;;;14.83;100.00
3464;BME280;3551;41.578;24.706;2022-09-09T04:35:44;91566.50;;;14.85;100.00
3464;BME280;3551;41.578;24.706;2022-09-09T04:38:11;91573.63;;;14.95;100.00
3464;BME280;3551;41.578;24.706;2022-09-09T04:40:38;91570.78;;;15.05;100.00
3464;BME280;3551;41.578;24.706;2022-09-09T04:43:10;91569.88;;;15.12;100.00
3464;BME280;3551;41.578;24.706;2022-09-09T04:45:37;91572.59;;;15.12;100.00
3464;BME280;3551;41.578;24.706;2022-09-09T04:48:06;91577.00;;;15.26;100.00
3464;BME280;3551;41.578;24.706;2022-09-09T04:50:35;91583.84;;;15.30;100.00
3464;BME280;3551;41.578;24.706;2022-09-09T04:53:02;91585.47;;;15.70;100.00
3464;BME280;3551;41.578;24.706;2022-09-09T04:55:30;91583.50;;;16.33;99.87
3464;BME280;3551;41.578;24.706;2022-09-09T04:57:57;91589.16;;;17.11;94.65
3464;BME280;3551;41.578;24.706;2022-09-09T05:00:25;91591.38;;;17.64;88.25
3464;BME280;3551;41.578;24.706;2022-09-09T05:02:52;91587.19;;;18.21;85.54
3464;BME280;3551;41.578;24.706;2022-09-09T05:05:19;91583.41;;;18.60;81.33
3464;BME280;3551;41.578;24.706;2022-09-09T05:07:46;91569.03;;;19.00;78.48
3464;BME280;3551;41.578;24.706;2022-09-09T05:10:13;91583.44;;;19.60;76.91
3464;BME280;3551;41.578;24.706;2022-09-09T05:12:42;91581.16;;;19.21;77.54
3464;BME280;3551;41.578;24.706;2022-09-09T05:15:09;91594.09;;;19.04;79.54
3464;BME280;3551;41.578;24.706;2022-09-09T05:17:38;91572.28;;;18.83;81.09
3464;BME280;3551;41.578;24.706;2022-09-09T05:20:06;91591.69;;;19.57;77.59
3464;BME280;3551;41.578;24.706;2022-09-09T05:22:33;91581.13;;;20.06;75.47
3464;BME280;3551;41.578;24.706;2022-09-09T05:25:00;91578.41;;;20.06;74.24
3464;BME280;3551;41.578;24.706;2022-09-09T05:27:27;91572.91;;;19.97;74.66
3464;BME280;3551;41.578;24.706;2022-09-09T05:29:56;91587.22;;;20.32;73.34
3464;BME280;3551;41.578;24.706;2022-09-09T05:32:23;91586.47;;;20.74;71.41
3464;BME280;3551;41.578;24.706;2022-09-09T05:34:52;91579.84;;;21.06;68.65
3464;BME280;3551;41.578;24.706;2022-09-09T05:37:19;91597.81;;;21.35;68.08
3464;BME280;3551;41.578;24.706;2022-09-09T05:39:46;91575.75;;;21.33;68.13
3464;BME280;3551;41.578;24.706;2022-09-09T05:42:12;91578.25;;;21.18;69.49
3464;BME280;3551;41.578;24.706;2022-09-09T05:44:40;91575.66;;;20.84;72.21
3464;BME280;3551;41.578;24.706;2022-09-09T05:47:08;91573.72;;;20.93;72.41
3464;BME280;3551;41.578;24.706;2022-09-09T05:49:35;91579.56;;;21.13;70.98
3464;BME280;3551;41.578;24.706;2022-09-09T05:52:03;91582.38;;;21.31;70.60
3464;BME280;3551;41.578;24.706;2022-09-09T05:54:31;91580.47;;;21.50;69.49
3464;BME280;3551;41.578;24.706;2022-09-09T05:56:58;91578.44;;;21.81;67.55
3464;BME280;3551;41.578;24.706;2022-09-09T05:59:25;91592.91;;;21.60;68.30
3464;BME280;3551;41.578;24.706;2022-09-09T06:01:51;91573.44;;;21.71;68.69
3464;BME280;3551;41.578;24.706;2022-09-09T06:04:18;91577.75;;;22.35;65.62
3464;BME280;3551;41.578;24.706;2022-09-09T06:06:50;91584.25;;;22.56;64.29
3464;BME280;3551;41.578;24.706;2022-09-09T06:09:18;91572.41;;;22.77;63.75
3464;BME280;3551;41.578;24.706;2022-09-09T06:11:45;91575.25;;;22.92;63.52
3464;BME280;3551;41.578;24.706;2022-09-09T06:14:12;91569.38;;;22.84;63.64
3464;BME280;3551;41.578;24.706;2022-09-09T06:16:40;91561.84;;;23.12;62.78
3464;BME280;3551;41.578;24.706;2022-09-09T06:19:09;91556.03;;;22.59;65.23
3464;BME280;3551;41.578;24.706;2022-09-09T06:21:37;91561.53;;;23.19;63.54
3464;BME280;3551;41.578;24.706;2022-09-09T06:24:06;91553.72;;;23.36;61.70
3464;BME280;3551;41.578;24.706;2022-09-09T06:26:36;91566.44;;;23.48;61.69
3464;BME280;3551;41.578;24.706;2022-09-09T06:29:06;91564.25;;;23.61;61.31
3464;BME280;3551;41.578;24.706;2022-09-09T06:31:35;91580.47;;;23.65;61.08
3464;BME280;3551;41.578;24.706;2022-09-09T06:34:04;91565.81;;;23.77;60.74
3464;BME280;3551;41.578;24.706;2022-09-09T06:36:34;91553.47;;;23.90;60.74
3464;BME280;3551;41.578;24.706;2022-09-09T06:39:02;91564.69;;;23.92;60.84
3464;BME280;3551;41.578;24.706;2022-09-09T06:41:31;91571.66;;;23.70;61.20
3464;BME280;3551;41.578;24.706;2022-09-09T06:43:59;91557.41;;;23.66;61.00
3464;BME280;3551;41.578;24.706;2022-09-09T06:46:28;91568.28;;;23.75;60.67
3464;BME280;3551;41.578;24.706;2022-09-09T06:48:57;91567.13;;;23.67;60.71
3464;BME280;3551;41.578;24.706;2022-09-09T06:51:26;91572.81;;;23.45;60.97
3464;BME280;3551;41.578;24.706;2022-09-09T06:53:54;91557.75;;;23.17;62.19
3464;BME280;3551;41.578;24.706;2022-09-09T06:56:23;91549.66;;;22.89;63.30
3464;BME280;3551;41.578;24.706;2022-09-09T06:58:51;91545.28;;;22.83;63.16
3464;BME280;3551;41.578;24.706;2022-09-09T07:01:22;91554.25;;;22.65;64.81
3464;BME280;3551;41.578;24.706;2022-09-09T07:03:50;91561.81;;;22.79;65.11
3464;BME280;3551;41.578;24.706;2022-09-09T07:06:20;91569.22;;;22.88;62.79
3464;BME280;3551;41.578;24.706;2022-09-09T07:08:51;91564.31;;;23.01;62.36
3464;BME280;3551;41.578;24.706;2022-09-09T07:11:19;91569.16;;;23.06;62.34
3464;BME280;3551;41.578;24.706;2022-09-09T07:13:47;91573.16;;;22.87;62.87
3464;BME280;3551;41.578;24.706;2022-09-09T07:16:16;91547.41;;;22.88;61.46
3464;BME280;3551;41.578;24.706;2022-09-09T07:18:45;91562.78;;;23.00;62.13
3464;BME280;3551;41.578;24.706;2022-09-09T07:21:13;91563.06;;;23.20;60.63
3464;BME280;3551;41.578;24.706;2022-09-09T07:23:41;91573.06;;;23.23;60.75
3464;BME280;3551;41.578;24.706;2022-09-09T07:26:09;91575.94;;;23.20;60.68
3464;BME280;3551;41.578;24.706;2022-09-09T07:28:37;91568.63;;;23.26;61.79
3464;BME280;3551;41.578;24.706;2022-09-09T07:31:05;91574.06;;;23.35;62.57
3464;BME280;3551;41.578;24.706;2022-09-09T07:33:34;91570.09;;;23.36;62.34
3464;BME280;3551;41.578;24.706;2022-09-09T07:36:08;91574.28;;;23.13;62.31
3464;BME280;3551;41.578;24.706;2022-09-09T07:38:38;91559.88;;;23.13;63.19
3464;BME280;3551;41.578;24.706;2022-09-09T07:41:06;91583.53;;;23.07;63.23
3464;BME280;3551;41.578;24.706;2022-09-09T07:43:34;91567.91;;;23.16;63.60
3464;BME280;3551;41.578;24.706;2022-09-09T07:46:01;91570.72;;;23.31;64.89
3464;BME280;3551;41.578;24.706;2022-09-09T07:48:28;91568.91;;;23.37;64.07
3464;BME280;3551;41.578;24.706;2022-09-09T07:51:08;91576.19;;;23.31;62.74
3464;BME280;3551;41.578;24.706;2022-09-09T07:53:37;91569.34;;;23.44;62.49
3464;BME280;3551;41.578;24.706;2022-09-09T07:56:06;91557.09;;;23.40;61.90
3464;BME280;3551;41.578;24.706;2022-09-09T07:58:35;91570.81;;;23.55;61.38
3464;BME280;3551;41.578;24.706;2022-09-09T08:01:07;91564.94;;;23.71;62.29
3464;BME280;3551;41.578;24.706;2022-09-09T08:03:34;91552.94;;;23.77;60.78
3464;BME280;3551;41.578;24.706;2022-09-09T08:06:02;91549.28;;;23.80;61.89
3464;BME280;3551;41.578;24.706;2022-09-09T08:08:31;91549.97;;;23.90;61.05
3464;BME280;3551;41.578;24.706;2022-09-09T08:11:02;91544.09;;;24.06;61.47
3464;BME280;3551;41.578;24.706;2022-09-09T08:13:30;91544.31;;;24.17;61.65
3464;BME280;3551;41.578;24.706;2022-09-09T08:16:04;91530.03;;;24.22;61.17
3464;BME280;3551;41.578;24.706;2022-09-09T08:18:31;91548.44;;;24.36;62.26
3464;BME280;3551;41.578;24.706;2022-09-09T08:21:04;91543.72;;;24.37;60.85
3464;BME280;3551;41.578;24.706;2022-09-09T08:23:33;91522.69;;;24.28;61.24
3464;BME280;3551;41.578;24.706;2022-09-09T08:26:09;91546.38;;;24.46;60.51
3464;BME280;3551;41.578;24.706;2022-09-09T08:28:36;91540.63;;;24.58;60.16
3464;BME280;3551;41.578;24.706;2022-09-09T08:31:08;91539.81;;;24.82;59.18
3464;BME280;3551;41.578;24.706;2022-09-09T08:33:35;91537.84;;;24.82;60.28
3464;BME280;3551;41.578;24.706;2022-09-09T08:36:05;91545.69;;;24.89;59.35
3464;BME280;3551;41.578;24.706;2022-09-09T08:38:33;91525.97;;;25.00;59.12
3464;BME280;3551;41.578;24.706;2022-09-09T08:41:12;91539.28;;;25.07;57.28
3464;BME280;3551;41.578;24.706;2022-09-09T08:43:46;91533.69;;;24.72;55.90
3464;BME280;3551;41.578;24.706;2022-09-09T08:46:18;91530.13;;;24.95;57.02
3464;BME280;3551;41.578;24.706;2022-09-09T08:48:56;91529.06;;;24.93;55.08
3464;BME280;3551;41.578;24.706;2022-09-09T08:51:27;91538.75;;;24.79;54.54
3464;BME280;3551;41.578;24.706;2022-09-09T08:54:00;91528.44;;;24.83;53.70
3464;BME280;3551;41.578;24.706;2022-09-09T08:56:31;91527.19;;;24.84;54.00
3464;BME280;3551;41.578;24.706;2022-09-09T08:59:00;91527.75;;;25.03;53.91
3464;BME280;3551;41.578;24.706;2022-09-09T09:01:40;91530.84;;;25.10;53.95
3464;BME280;3551;41.578;24.706;2022-09-09T09:04:20;91527.06;;;25.23;52.89
3464;BME280;3551;41.578;24.706;2022-09-09T09:06:57;91517.66;;;25.09;52.43
3464;BME280;3551;41.578;24.706;2022-09-09T09:09:36;91527.22;;;25.34;52.51
3464;BME280;3551;41.578;24.706;2022-09-09T09:12:15;91517.66;;;25.09;54.15
3464;BME280;3551;41.578;24.706;2022-09-09T09:14:44;91513.97;;;25.12;54.72
3464;BME280;3551;41.578;24.706;2022-09-09T09:17:14;91518.28;;;25.33;55.59
3464;BME280;3551;41.578;24.706;2022-09-09T09:19:46;91511.22;;;25.12;54.83
3464;BME280;3551;41.578;24.706;2022-09-09T09:22:17;91540.09;;;25.28;55.29
3464;BME280;3551;41.578;24.706;2022-09-09T09:24:51;91519.56;;;25.38;55.88
3464;BME280;3551;41.578;24.706;2022-09-09T09:27:24;91513.84;;;25.36;56.01
3464;BME280;3551;41.578;24.706;2022-09-09T09:29:55;91519.31;;;25.36;54.72
3464;BME280;3551;41.578;24.706;2022-09-09T09:32:24;91511.41;;;25.08;55.56
3464;BME280;3551;41.578;24.706;2022-09-09T09:34:55;91511.19;;;25.27;54.70
3464;BME280;3551;41.578;24.706;2022-09-09T09:37:26;91510.22;;;25.44;52.95
3464;BME280;3551;41.578;24.706;2022-09-09T09:39:55;91506.13;;;25.54;53.37
3464;BME280;3551;41.578;24.706;2022-09-09T09:42:22;91522.00;;;25.65;54.10
3464;BME280;3551;41.578;24.706;2022-09-09T09:44:49;91522.13;;;25.56;51.58
3464;BME280;3551;41.578;24.706;2022-09-09T09:47:19;91506.03;;;25.84;53.36
3464;BME280;3551;41.578;24.706;2022-09-09T09:49:54;91508.56;;;25.67;53.44
3464;BME280;3551;41.578;24.706;2022-09-09T09:52:23;91499.47;;;25.76;51.06
3464;BME280;3551;41.578;24.706;2022-09-09T09:54:50;91499.41;;;25.70;48.63
3464;BME280;3551;41.578;24.706;2022-09-09T09:57:25;91498.91;;;25.71;49.28
3464;BME280;3551;41.578;24.706;2022-09-09T10:00:03;91506.03;;;25.84;51.61
3464;BME280;3551;41.578;24.706;2022-09-09T10:02:38;91510.44;;;25.96;50.26
3464;BME280;3551;41.578;24.706;2022-09-09T10:05:13;91476.78;;;25.75;50.46
3464;BME280;3551;41.578;24.706;2022-09-09T10:07:40;91491.94;;;25.70;48.84
3464;BME280;3551;41.578;24.706;2022-09-09T10:10:15;91522.91;;;25.77;50.01
3464;BME280;3551;41.578;24.706;2022-09-09T10:12:55;91509.13;;;25.91;50.60
3464;BME280;3551;41.578;24.706;2022-09-09T10:15:32;91483.59;;;25.80;50.78
3464;BME280;3551;41.578;24.706;2022-09-09T10:18:20;91482.47;;;25.71;50.86
3464;BME280;3551;41.578;24.706;2022-09-09T10:20:56;91504.69;;;25.73;53.21
3464;BME280;3551;41.578;24.706;2022-09-09T10:23:36;91501.88;;;25.68;47.72
3464;BME280;3551;41.578;24.706;2022-09-09T10:26:18;91495.38;;;25.86;50.94
3464;BME280;3551;41.578;24.706;2022-09-09T10:29:13;91497.59;;;25.67;48.60
3464;BME280;3551;41.578;24.706;2022-09-09T10:31:48;91487.47;;;25.53;47.57
3464;BME280;3551;41.578;24.706;2022-09-09T10:34:29;91494.16;;;25.52;48.22
3464;BME280;3551;41.578;24.706;2022-09-09T10:37:05;91508.00;;;25.63;47.12
3464;BME280;3551;41.578;24.706;2022-09-09T10:39:39;91497.28;;;26.00;48.82
3464;BME280;3551;41.578;24.706;2022-09-09T10:42:09;91477.00;;;26.12;48.31
3464;BME280;3551;41.578;24.706;2022-09-09T10:44:56;91477.19;;;26.28;49.87
3464;BME280;3551;41.578;24.706;2022-09-09T10:47:38;91477.91;;;26.03;47.67
3464;BME280;3551;41.578;24.706;2022-09-09T10:50:43;91475.69;;;26.07;48.61
3464;BME280;3551;41.578;24.706;2022-09-09T10:53:19;91490.09;;;26.02;48.23
3464;BME280;3551;41.578;24.706;2022-09-09T10:55:53;91460.41;;;25.81;49.34
3464;BME280;3551;41.578;24.706;2022-09-09T10:58:25;91487.34;;;26.02;49.60
3464;BME280;3551;41.578;24.706;2022-09-09T11:00:58;91484.09;;;26.04;50.19
3464;BME280;3551;41.578;24.706;2022-09-09T11:03:28;91477.41;;;26.25;49.06
3464;BME280;3551;41.578;24.706;2022-09-09T11:05:58;91463.56;;;26.14;50.13
3464;BME280;3551;41.578;24.706;2022-09-09T11:08:29;91463.69;;;26.05;50.22
3464;BME280;3551;41.578;24.706;2022-09-09T11:11:00;91431.81;;;25.47;49.43
3464;BME280;3551;41.578;24.706;2022-09-09T11:13:35;91451.34;;;25.19;50.95
3464;BME280;3551;41.578;24.706;2022-09-09T11:16:19;91465.00;;;25.34;53.27
3464;BME280;3551;41.578;24.706;2022-09-09T11:18:49;91440.78;;;25.62;50.52
3464;BME280;3551;41.578;24.706;2022-09-09T11:21:21;91463.72;;;25.85;51.23
3464;BME280;3551;41.578;24.706;2022-09-09T11:23:54;91465.16;;;26.00;50.60
3464;BME280;3551;41.578;24.706;2022-09-09T11:26:29;91444.78;;;25.87;49.36
3464;BME280;3551;41.578;24.706;2022-09-09T11:29:07;91464.53;;;25.91;50.84
3464;BME280;3551;41.578;24.706;2022-09-09T11:31:55;91458.72;;;25.83;50.54
3464;BME280;3551;41.578;24.706;2022-09-09T11:34:35;91466.84;;;25.78;50.76
3464;BME280;3551;41.578;24.706;2022-09-09T11:37:17;91454.03;;;25.69;51.32
3464;BME280;3551;41.578;24.706;2022-09-09T11:40:09;91444.41;;;25.73;50.14
3464;BME280;3551;41.578;24.706;2022-09-09T11:42:42;91448.44;;;25.58;52.06
3464;BME280;3551;41.578;24.706;2022-09-09T11:45:11;91456.94;;;25.45;52.29
3464;BME280;3551;41.578;24.706;2022-09-09T11:47:39;91443.56;;;25.67;54.58
3464;BME280;3551;41.578;24.706;2022-09-09T11:50:30;91444.25;;;25.62;52.78
3464;BME280;3551;41.578;24.706;2022-09-09T11:53:21;91443.00;;;25.84;52.82
3464;BME280;3551;41.578;24.706;2022-09-09T11:56:25;91430.69;;;25.73;54.45
3464;BME280;3551;41.578;24.706;2022-09-09T11:58:58;91438.50;;;25.81;54.91
3464;BME280;3551;41.578;24.706;2022-09-09T12:01:40;91431.16;;;25.72;54.62
3464;BME280;3551;41.578;24.706;2022-09-09T12:07:04;91423.97;;;25.54;55.50
3464;BME280;3551;41.578;24.706;2022-09-09T12:09:45;91429.00;;;25.41;54.66
3464;BME280;3551;41.578;24.706;2022-09-09T12:12:32;91431.06;;;25.46;54.88
3464;BME280;3551;41.578;24.706;2022-09-09T12:15:19;91428.16;;;25.50;55.20
3464;BME280;3551;41.578;24.706;2022-09-09T12:17:48;91422.59;;;25.44;55.30
3464;BME280;3551;41.578;24.706;2022-09-09T12:20:19;91447.91;;;25.54;55.07
3464;BME280;3551;41.578;24.706;2022-09-09T12:23:09;91409.16;;;25.46;54.89
3464;BME280;3551;41.578;24.706;2022-09-09T12:25:58;91410.97;;;25.49;54.11
3464;BME280;3551;41.578;24.706;2022-09-09T12:28:39;91415.75;;;25.54;55.27
3464;BME280;3551;41.578;24.706;2022-09-09T12:31:11;91394.59;;;25.55;55.26
3464;BME280;3551;41.578;24.706;2022-09-09T12:33:44;91388.84;;;25.53;56.18
3464;BME280;3551;41.578;24.706;2022-09-09T12:36:17;91389.16;;;25.40;56.47
3464;BME280;3551;41.578;24.706;2022-09-09T12:38:46;91370.56;;;25.24;56.63
3464;BME280;3551;41.578;24.706;2022-09-09T12:41:19;91387.69;;;25.39;55.96
3464;BME280;3551;41.578;24.706;2022-09-09T12:43:47;91371.72;;;25.38;56.66
3464;BME280;3551;41.578;24.706;2022-09-09T12:46:22;91385.91;;;25.36;55.92
3464;BME280;3551;41.578;24.706;2022-09-09T12:48:52;91373.41;;;25.15;58.21
3464;BME280;3551;41.578;24.706;2022-09-09T12:51:26;91372.16;;;25.16;57.25
3464;BME280;3551;41.578;24.706;2022-09-09T12:53:55;91398.47;;;24.93;59.02
3464;BME280;3551;41.578;24.706;2022-09-09T12:56:23;91377.38;;;25.14;58.15
3464;BME280;3551;41.578;24.706;2022-09-09T12:58:53;91384.16;;;24.98;57.25
3464;BME280;3551;41.578;24.706;2022-09-09T13:01:23;91365.72;;;24.99;59.01
3464;BME280;3551;41.578;24.706;2022-09-09T13:03:51;91374.91;;;25.16;58.02
3464;BME280;3551;41.578;24.706;2022-09-09T13:06:22;91376.78;;;24.90;59.00
3464;BME280;3551;41.578;24.706;2022-09-09T13:08:50;91367.31;;;25.05;58.71
3464;BME280;3551;41.578;24.706;2022-09-09T13:11:21;91388.94;;;25.03;58.12
3464;BME280;3551;41.578;24.706;2022-09-09T13:13:52;91368.47;;;24.99;58.81
3464;BME280;3551;41.578;24.706;2022-09-09T13:16:22;91378.31;;;24.91;59.91
3464;BME280;3551;41.578;24.706;2022-09-09T13:18:50;91371.91;;;24.64;59.65
3464;BME280;3551;41.578;24.706;2022-09-09T13:21:17;91343.75;;;24.44;60.52
3464;BME280;3551;41.578;24.706;2022-09-09T13:23:50;91362.13;;;24.58;60.65
3464;BME280;3551;41.578;24.706;2022-09-09T13:26:24;91380.13;;;24.64;61.52
3464;BME280;3551;41.578;24.706;2022-09-09T13:28:52;91361.81;;;24.71;61.19
3464;BME280;3551;41.578;24.706;2022-09-09T13:31:21;91363.31;;;24.86;61.44
3464;BME280;3551;41.578;24.706;2022-09-09T13:33:49;91389.34;;;24.67;63.59